Tompa, Russia
Current Conditions -  °F | °C
As of 5:30 PM on Friday 24 Oct 2014 (Local Time) from UIUU Reporting Station
Broken Clouds Broken Clouds  
Wind Chill: 35°   Ceiling: 3200
Heat Index: 43°   Visibility: 6mi
Dew Point: 30°   Wind: 18mph
Humidity: 61%   Direction: 320°NW
Pressure: 29.77"   Gusts: NA
Location:  55.13°N, 109.78°E
Report Text: UIUU 240930Z 32008MPS 9999 BKN032CB BKN100 06/M01 Q1008 NOSIGRMK QFE712/0949 26CLRD60
Loading
Personal Weather Stations






























Interactive Weather Map
Tropical Storm Tracking
New forecast layout! Learn more

10-Day Weather Forecast

Advertisements
Track Severe Weather on mobile